< < Back
Terminal Aerodrome Forecast


Current Version              Previous Versions:   1  2  3  4  5  6  7  8  9  

Terminal Aerodrome Forecast

350
FTUS44 KBMX 292339
TAFBHM
TAF
KBHM 292339Z 3000/3024 26009KT P6SM VCTS BKN040CB
     FM300100 26007KT P6SM SCT050
     FM300300 VRB03KT P6SM SCT250=

Latest METAR

850
SAUS70 KWBC 300500 RRM
MTRBHM
METAR KBHM 300453Z 28004KT 10SM FEW040 27/23 A3003 RMK AO2 SLP160
T02670228


USA.gov is the U.S. government's official web portal to all federal, state and local government web resources and services.